sensor_id;sensor_type;location;lat;lon;timestamp;P1;durP1;ratioP1;P2;durP2;ratioP2
28760;SDS011;15917;50.014;8.352;2024-03-23T00:54:36;48.78;;;23.08;;
28760;SDS011;15917;50.014;8.352;2024-03-23T00:57:02;48.38;;;21.73;;
28760;SDS011;15917;50.014;8.352;2024-03-23T00:59:27;48.03;;;23.48;;
28760;SDS011;15917;50.014;8.352;2024-03-23T01:01:54;55.85;;;22.90;;
28760;SDS011;15917;50.014;8.352;2024-03-23T01:04:20;55.72;;;24.95;;
28760;SDS011;15917;50.014;8.352;2024-03-23T01:06:45;61.30;;;26.23;;
28760;SDS011;15917;50.014;8.352;2024-03-23T01:09:12;52.78;;;26.48;;
28760;SDS011;15917;50.014;8.352;2024-03-23T01:11:38;57.75;;;27.38;;
28760;SDS011;15917;50.014;8.352;2024-03-23T01:14:04;52.38;;;26.33;;
28760;SDS011;15917;50.014;8.352;2024-03-23T01:16:31;56.88;;;28.83;;
28760;SDS011;15917;50.014;8.352;2024-03-23T01:18:57;58.28;;;28.05;;
28760;SDS011;15917;50.014;8.352;2024-03-23T01:21:22;56.45;;;28.40;;
28760;SDS011;15917;50.014;8.352;2024-03-23T01:23:48;59.72;;;27.48;;
28760;SDS011;15917;50.014;8.352;2024-03-23T01:26:14;58.42;;;27.90;;
28760;SDS011;15917;50.014;8.352;2024-03-23T01:28:40;58.53;;;27.73;;
28760;SDS011;15917;50.014;8.352;2024-03-23T01:31:05;68.05;;;30.13;;
28760;SDS011;15917;50.014;8.352;2024-03-23T01:33:31;64.07;;;30.23;;
28760;SDS011;15917;50.014;8.352;2024-03-23T01:35:57;64.93;;;30.42;;
28760;SDS011;15917;50.014;8.352;2024-03-23T01:38:22;65.97;;;29.77;;
28760;SDS011;15917;50.014;8.352;2024-03-23T01:40:48;76.72;;;33.72;;
28760;SDS011;15917;50.014;8.352;2024-03-23T01:43:13;66.22;;;31.25;;
28760;SDS011;15917;50.014;8.352;2024-03-23T01:45:39;71.00;;;34.20;;
28760;SDS011;15917;50.014;8.352;2024-03-23T01:48:05;61.15;;;30.38;;
28760;SDS011;15917;50.014;8.352;2024-03-23T01:50:31;58.72;;;29.65;;
28760;SDS011;15917;50.014;8.352;2024-03-23T01:52:59;57.20;;;27.98;;
28760;SDS011;15917;50.014;8.352;2024-03-23T01:55:27;56.55;;;27.63;;
28760;SDS011;15917;50.014;8.352;2024-03-23T01:57:53;57.33;;;26.27;;
28760;SDS011;15917;50.014;8.352;2024-03-23T02:00:22;57.00;;;28.13;;
28760;SDS011;15917;50.014;8.352;2024-03-23T02:02:48;61.75;;;28.40;;
28760;SDS011;15917;50.014;8.352;2024-03-23T02:05:14;61.92;;;27.63;;
28760;SDS011;15917;50.014;8.352;2024-03-23T02:07:40;56.40;;;27.13;;
28760;SDS011;15917;50.014;8.352;2024-03-23T02:10:08;59.25;;;27.98;;
28760;SDS011;15917;50.014;8.352;2024-03-23T02:12:40;56.25;;;27.08;;
28760;SDS011;15917;50.014;8.352;2024-03-23T02:15:06;55.75;;;26.77;;
28760;SDS011;15917;50.014;8.352;2024-03-23T02:17:33;63.13;;;27.60;;
28760;SDS011;15917;50.014;8.352;2024-03-23T02:20:00;55.25;;;27.20;;
28760;SDS011;15917;50.014;8.352;2024-03-23T02:22:36;64.10;;;27.48;;
28760;SDS011;15917;50.014;8.352;2024-03-23T02:25:03;54.55;;;25.05;;
28760;SDS011;15917;50.014;8.352;2024-03-23T02:27:29;59.20;;;25.83;;
28760;SDS011;15917;50.014;8.352;2024-03-23T02:29:55;54.67;;;25.17;;
28760;SDS011;15917;50.014;8.352;2024-03-23T02:32:20;65.60;;;24.65;;
28760;SDS011;15917;50.014;8.352;2024-03-23T02:34:46;43.08;;;21.38;;
28760;SDS011;15917;50.014;8.352;2024-03-23T02:37:11;45.60;;;21.77;;
28760;SDS011;15917;50.014;8.352;2024-03-23T02:39:37;49.28;;;22.80;;
28760;SDS011;15917;50.014;8.352;2024-03-23T02:42:03;46.85;;;23.20;;
28760;SDS011;15917;50.014;8.352;2024-03-23T02:44:28;42.45;;;20.95;;
28760;SDS011;15917;50.014;8.352;2024-03-23T02:46:54;54.88;;;22.17;;
28760;SDS011;15917;50.014;8.352;2024-03-23T02:49:19;45.17;;;21.60;;
28760;SDS011;15917;50.014;8.352;2024-03-23T02:51:46;46.90;;;20.85;;
28760;SDS011;15917;50.014;8.352;2024-03-23T02:54:13;49.25;;;21.92;;
28760;SDS011;15917;50.014;8.352;2024-03-23T02:56:39;46.10;;;20.58;;
28760;SDS011;15917;50.014;8.352;2024-03-23T02:59:04;45.50;;;21.80;;
28760;SDS011;15917;50.014;8.352;2024-03-23T03:01:30;49.20;;;22.15;;
28760;SDS011;15917;50.014;8.352;2024-03-23T03:03:56;45.80;;;20.15;;
28760;SDS011;15917;50.014;8.352;2024-03-23T03:06:24;36.92;;;17.05;;
28760;SDS011;15917;50.014;8.352;2024-03-23T03:08:50;34.83;;;17.20;;
28760;SDS011;15917;50.014;8.352;2024-03-23T03:11:16;39.65;;;18.45;;
28760;SDS011;15917;50.014;8.352;2024-03-23T03:13:41;37.90;;;16.25;;
28760;SDS011;15917;50.014;8.352;2024-03-23T03:16:10;35.47;;;14.95;;
28760;SDS011;15917;50.014;8.352;2024-03-23T03:18:36;38.25;;;16.95;;
28760;SDS011;15917;50.014;8.352;2024-03-23T03:21:03;35.85;;;16.20;;
28760;SDS011;15917;50.014;8.352;2024-03-23T03:23:30;32.38;;;15.73;;
28760;SDS011;15917;50.014;8.352;2024-03-23T03:25:56;32.15;;;16.08;;
28760;SDS011;15917;50.014;8.352;2024-03-23T03:28:22;35.70;;;15.98;;
28760;SDS011;15917;50.014;8.352;2024-03-23T03:30:47;38.95;;;17.38;;
28760;SDS011;15917;50.014;8.352;2024-03-23T03:33:13;41.38;;;17.95;;
28760;SDS011;15917;50.014;8.352;2024-03-23T03:35:38;41.28;;;18.05;;
28760;SDS011;15917;50.014;8.352;2024-03-23T03:38:04;39.75;;;17.38;;
28760;SDS011;15917;50.014;8.352;2024-03-23T03:40:30;38.28;;;16.05;;
28760;SDS011;15917;50.014;8.352;2024-03-23T03:42:55;35.60;;;16.17;;
28760;SDS011;15917;50.014;8.352;2024-03-23T03:45:21;35.95;;;16.23;;
28760;SDS011;15917;50.014;8.352;2024-03-23T03:47:46;39.22;;;17.95;;
28760;SDS011;15917;50.014;8.352;2024-03-23T03:50:12;33.30;;;16.65;;
28760;SDS011;15917;50.014;8.352;2024-03-23T03:52:38;37.58;;;16.70;;
28760;SDS011;15917;50.014;8.352;2024-03-23T03:55:03;34.40;;;16.42;;
28760;SDS011;15917;50.014;8.352;2024-03-23T03:57:38;38.40;;;18.08;;
28760;SDS011;15917;50.014;8.352;2024-03-23T04:00:03;40.22;;;19.48;;
28760;SDS011;15917;50.014;8.352;2024-03-23T04:02:30;39.80;;;17.80;;
28760;SDS011;15917;50.014;8.352;2024-03-23T04:04:55;36.25;;;16.15;;
28760;SDS011;15917;50.014;8.352;2024-03-23T04:07:21;23.88;;;10.00;;
28760;SDS011;15917;50.014;8.352;2024-03-23T04:09:48;17.27;;;7.22;;
28760;SDS011;15917;50.014;8.352;2024-03-23T04:12:14;12.82;;;6.07;;
28760;SDS011;15917;50.014;8.352;2024-03-23T04:14:40;5.65;;;3.40;;
28760;SDS011;15917;50.014;8.352;2024-03-23T04:17:06;9.18;;;2.40;;
28760;SDS011;15917;50.014;8.352;2024-03-23T04:19:32;4.35;;;1.88;;
28760;SDS011;15917;50.014;8.352;2024-03-23T04:21:57;4.93;;;1.85;;
28760;SDS011;15917;50.014;8.352;2024-03-23T04:24:23;2.97;;;1.20;;
28760;SDS011;15917;50.014;8.352;2024-03-23T04:29:16;5.82;;;1.20;;
28760;SDS011;15917;50.014;8.352;2024-03-23T04:31:42;3.58;;;1.30;;
28760;SDS011;15917;50.014;8.352;2024-03-23T04:34:07;2.40;;;1.35;;
28760;SDS011;15917;50.014;8.352;2024-03-23T04:36:33;5.10;;;1.48;;
28760;SDS011;15917;50.014;8.352;2024-03-23T04:38:59;1.48;;;1.10;;
28760;SDS011;15917;50.014;8.352;2024-03-23T04:41:25;3.28;;;0.98;;
28760;SDS011;15917;50.014;8.352;2024-03-23T04:43:51;2.60;;;1.38;;
28760;SDS011;15917;50.014;8.352;2024-03-23T04:46:20;1.63;;;0.98;;
28760;SDS011;15917;50.014;8.352;2024-03-23T04:48:45;1.55;;;1.00;;
28760;SDS011;15917;50.014;8.352;2024-03-23T04:51:19;2.75;;;1.35;;
28760;SDS011;15917;50.014;8.352;2024-03-23T04:53:48;1.77;;;1.27;;
28760;SDS011;15917;50.014;8.352;2024-03-23T04:56:15;7.07;;;1.92;;
28760;SDS011;15917;50.014;8.352;2024-03-23T04:58:42;1.30;;;1.00;;
28760;SDS011;15917;50.014;8.352;2024-03-23T05:01:08;7.43;;;1.30;;
28760;SDS011;15917;50.014;8.352;2024-03-23T05:03:36;3.72;;;1.50;;
28760;SDS011;15917;50.014;8.352;2024-03-23T05:06:02;2.75;;;1.08;;
28760;SDS011;15917;50.014;8.352;2024-03-23T05:08:28;2.60;;;1.20;;
28760;SDS011;15917;50.014;8.352;2024-03-23T05:10:53;5.05;;;1.10;;
28760;SDS011;15917;50.014;8.352;2024-03-23T05:13:19;2.42;;;1.58;;
28760;SDS011;15917;50.014;8.352;2024-03-23T05:15:50;4.00;;;1.92;;
28760;SDS011;15917;50.014;8.352;2024-03-23T05:18:19;2.50;;;1.40;;
28760;SDS011;15917;50.014;8.352;2024-03-23T05:20:45;4.70;;;1.60;;
28760;SDS011;15917;50.014;8.352;2024-03-23T05:23:10;2.15;;;1.55;;
28760;SDS011;15917;50.014;8.352;2024-03-23T05:25:36;3.25;;;1.80;;
28760;SDS011;15917;50.014;8.352;2024-03-23T05:28:01;7.45;;;1.75;;
28760;SDS011;15917;50.014;8.352;2024-03-23T05:30:27;2.83;;;2.05;;
28760;SDS011;15917;50.014;8.352;2024-03-23T05:32:53;3.70;;;2.03;;
28760;SDS011;15917;50.014;8.352;2024-03-23T05:35:19;2.65;;;1.95;;
28760;SDS011;15917;50.014;8.352;2024-03-23T05:37:45;2.90;;;2.03;;
28760;SDS011;15917;50.014;8.352;2024-03-23T05:40:10;3.58;;;2.28;;
28760;SDS011;15917;50.014;8.352;2024-03-23T05:42:37;3.17;;;2.03;;
28760;SDS011;15917;50.014;8.352;2024-03-23T05:45:04;1.63;;;1.45;;
28760;SDS011;15917;50.014;8.352;2024-03-23T05:47:31;2.20;;;1.45;;
28760;SDS011;15917;50.014;8.352;2024-03-23T05:49:57;2.95;;;1.77;;
28760;SDS011;15917;50.014;8.352;2024-03-23T05:52:23;2.85;;;1.85;;
28760;SDS011;15917;50.014;8.352;2024-03-23T05:54:50;3.05;;;1.77;;
28760;SDS011;15917;50.014;8.352;2024-03-23T05:57:16;1.73;;;1.17;;
28760;SDS011;15917;50.014;8.352;2024-03-23T05:59:41;1.88;;;1.20;;
28760;SDS011;15917;50.014;8.352;2024-03-23T06:02:08;2.50;;;1.08;;
28760;SDS011;15917;50.014;8.352;2024-03-23T06:04:35;2.35;;;1.02;;
28760;SDS011;15917;50.014;8.352;2024-03-23T06:07:01;5.65;;;1.02;;
28760;SDS011;15917;50.014;8.352;2024-03-23T06:09:27;1.08;;;0.90;;
28760;SDS011;15917;50.014;8.352;2024-03-23T06:11:52;4.15;;;0.90;;
28760;SDS011;15917;50.014;8.352;2024-03-23T06:14:18;1.58;;;1.02;;
28760;SDS011;15917;50.014;8.352;2024-03-23T06:16:43;2.05;;;0.77;;
28760;SDS011;15917;50.014;8.352;2024-03-23T06:19:09;2.28;;;0.75;;
28760;SDS011;15917;50.014;8.352;2024-03-23T06:21:35;2.05;;;0.70;;
28760;SDS011;15917;50.014;8.352;2024-03-23T06:24:00;1.80;;;0.30;;
28760;SDS011;15917;50.014;8.352;2024-03-23T06:26:26;0.70;;;0.50;;
28760;SDS011;15917;50.014;8.352;2024-03-23T06:28:52;0.85;;;0.40;;
28760;SDS011;15917;50.014;8.352;2024-03-23T06:31:17;2.83;;;0.70;;
28760;SDS011;15917;50.014;8.352;2024-03-23T06:33:43;0.63;;;0.50;;
28760;SDS011;15917;50.014;8.352;2024-03-23T06:36:09;1.67;;;0.60;;
28760;SDS011;15917;50.014;8.352;2024-03-23T06:38:36;3.28;;;0.60;;
28760;SDS011;15917;50.014;8.352;2024-03-23T06:41:03;1.38;;;0.70;;
28760;SDS011;15917;50.014;8.352;2024-03-23T06:43:32;1.92;;;0.50;;
28760;SDS011;15917;50.014;8.352;2024-03-23T06:45:57;1.15;;;0.63;;
28760;SDS011;15917;50.014;8.352;2024-03-23T06:48:23;1.63;;;0.70;;
28760;SDS011;15917;50.014;8.352;2024-03-23T06:50:49;1.20;;;0.60;;
28760;SDS011;15917;50.014;8.352;2024-03-23T06:53:19;1.85;;;0.80;;
28760;SDS011;15917;50.014;8.352;2024-03-23T06:55:49;2.15;;;0.95;;
28760;SDS011;15917;50.014;8.352;2024-03-23T06:58:17;3.08;;;0.90;;
28760;SDS011;15917;50.014;8.352;2024-03-23T07:00:43;2.72;;;0.93;;
28760;SDS011;15917;50.014;8.352;2024-03-23T07:03:09;5.90;;;0.85;;
28760;SDS011;15917;50.014;8.352;2024-03-23T07:05:34;3.45;;;0.90;;
28760;SDS011;15917;50.014;8.352;2024-03-23T07:08:00;2.33;;;0.95;;
28760;SDS011;15917;50.014;8.352;2024-03-23T07:10:26;4.18;;;1.17;;
28760;SDS011;15917;50.014;8.352;2024-03-23T07:12:54;4.53;;;1.00;;
28760;SDS011;15917;50.014;8.352;2024-03-23T07:15:20;6.32;;;1.20;;
28760;SDS011;15917;50.014;8.352;2024-03-23T07:17:48;4.47;;;1.10;;
28760;SDS011;15917;50.014;8.352;2024-03-23T07:20:14;6.47;;;1.40;;
28760;SDS011;15917;50.014;8.352;2024-03-23T07:22:39;3.92;;;1.23;;
28760;SDS011;15917;50.014;8.352;2024-03-23T07:25:05;9.70;;;1.75;;
28760;SDS011;15917;50.014;8.352;2024-03-23T07:27:31;9.15;;;2.85;;
28760;SDS011;15917;50.014;8.352;2024-03-23T07:29:57;6.65;;;3.30;;
28760;SDS011;15917;50.014;8.352;2024-03-23T07:32:23;11.77;;;3.97;;
28760;SDS011;15917;50.014;8.352;2024-03-23T07:34:48;14.57;;;5.38;;
28760;SDS011;15917;50.014;8.352;2024-03-23T07:37:14;8.60;;;3.78;;
28760;SDS011;15917;50.014;8.352;2024-03-23T07:39:40;9.95;;;3.58;;
28760;SDS011;15917;50.014;8.352;2024-03-23T07:42:06;8.68;;;2.83;;
28760;SDS011;15917;50.014;8.352;2024-03-23T07:44:31;7.57;;;2.53;;
28760;SDS011;15917;50.014;8.352;2024-03-23T07:46:58;9.07;;;2.95;;
28760;SDS011;15917;50.014;8.352;2024-03-23T07:49:26;16.25;;;2.97;;
28760;SDS011;15917;50.014;8.352;2024-03-23T07:51:51;16.13;;;3.22;;
28760;SDS011;15917;50.014;8.352;2024-03-23T07:54:17;12.00;;;3.30;;
28760;SDS011;15917;50.014;8.352;2024-03-23T07:56:43;13.75;;;3.30;;
28760;SDS011;15917;50.014;8.352;2024-03-23T07:59:09;9.23;;;3.58;;
28760;SDS011;15917;50.014;8.352;2024-03-23T08:01:35;8.82;;;3.55;;
28760;SDS011;15917;50.014;8.352;2024-03-23T08:04:00;10.75;;;3.83;;
28760;SDS011;15917;50.014;8.352;2024-03-23T08:06:26;8.02;;;3.00;;
28760;SDS011;15917;50.014;8.352;2024-03-23T08:08:52;13.10;;;3.55;;
28760;SDS011;15917;50.014;8.352;2024-03-23T08:11:29;17.05;;;3.97;;
28760;SDS011;15917;50.014;8.352;2024-03-23T08:13:55;9.07;;;2.65;;
28760;SDS011;15917;50.014;8.352;2024-03-23T08:16:22;10.73;;;3.42;;
28760;SDS011;15917;50.014;8.352;2024-03-23T08:18:50;11.88;;;3.70;;
28760;SDS011;15917;50.014;8.352;2024-03-23T08:21:16;6.95;;;3.17;;
28760;SDS011;15917;50.014;8.352;2024-03-23T08:23:42;8.70;;;2.85;;
28760;SDS011;15917;50.014;8.352;2024-03-23T08:26:08;11.88;;;3.20;;
28760;SDS011;15917;50.014;8.352;2024-03-23T08:28:36;13.80;;;3.47;;
28760;SDS011;15917;50.014;8.352;2024-03-23T08:31:12;10.23;;;3.13;;
28760;SDS011;15917;50.014;8.352;2024-03-23T08:33:39;15.00;;;3.45;;
28760;SDS011;15917;50.014;8.352;2024-03-23T08:36:07;14.02;;;3.20;;
28760;SDS011;15917;50.014;8.352;2024-03-23T08:38:34;17.73;;;3.35;;
28760;SDS011;15917;50.014;8.352;2024-03-23T08:41:07;17.27;;;3.10;;
28760;SDS011;15917;50.014;8.352;2024-03-23T08:43:40;19.33;;;3.70;;
28760;SDS011;15917;50.014;8.352;2024-03-23T08:46:10;9.05;;;3.33;;
28760;SDS011;15917;50.014;8.352;2024-03-23T08:48:43;13.85;;;3.08;;
28760;SDS011;15917;50.014;8.352;2024-03-23T08:51:13;20.48;;;4.47;;
28760;SDS011;15917;50.014;8.352;2024-03-23T08:53:40;15.45;;;3.40;;
28760;SDS011;15917;50.014;8.352;2024-03-23T08:56:06;13.55;;;3.13;;
28760;SDS011;15917;50.014;8.352;2024-03-23T08:58:33;9.83;;;3.27;;
28760;SDS011;15917;50.014;8.352;2024-03-23T09:01:03;14.40;;;3.88;;
28760;SDS011;15917;50.014;8.352;2024-03-23T09:03:36;11.90;;;3.50;;
28760;SDS011;15917;50.014;8.352;2024-03-23T09:06:02;16.88;;;3.30;;
28760;SDS011;15917;50.014;8.352;2024-03-23T09:08:39;11.07;;;3.40;;
28760;SDS011;15917;50.014;8.352;2024-03-23T09:11:08;14.23;;;3.58;;
28760;SDS011;15917;50.014;8.352;2024-03-23T09:13:36;11.95;;;3.42;;
28760;SDS011;15917;50.014;8.352;2024-03-23T09:16:02;10.70;;;2.70;;
28760;SDS011;15917;50.014;8.352;2024-03-23T09:18:30;15.00;;;3.40;;
28760;SDS011;15917;50.014;8.352;2024-03-23T09:20:57;16.95;;;2.97;;
28760;SDS011;15917;50.014;8.352;2024-03-23T09:23:23;15.27;;;3.00;;
28760;SDS011;15917;50.014;8.352;2024-03-23T09:25:48;10.60;;;2.38;;
28760;SDS011;15917;50.014;8.352;2024-03-23T09:28:14;20.27;;;3.22;;
28760;SDS011;15917;50.014;8.352;2024-03-23T09:30:39;13.02;;;2.38;;
28760;SDS011;15917;50.014;8.352;2024-03-23T09:33:11;15.00;;;2.55;;
28760;SDS011;15917;50.014;8.352;2024-03-23T09:35:41;13.32;;;2.92;;
28760;SDS011;15917;50.014;8.352;2024-03-23T09:38:12;16.83;;;2.33;;
28760;SDS011;15917;50.014;8.352;2024-03-23T09:40:41;14.48;;;2.17;;
28760;SDS011;15917;50.014;8.352;2024-03-23T09:43:07;14.68;;;3.05;;
28760;SDS011;15917;50.014;8.352;2024-03-23T09:45:34;11.70;;;2.08;;
28760;SDS011;15917;50.014;8.352;2024-03-23T09:48:03;16.05;;;2.72;;
28760;SDS011;15917;50.014;8.352;2024-03-23T09:50:30;9.30;;;2.03;;
28760;SDS011;15917;50.014;8.352;2024-03-23T09:52:55;7.63;;;1.95;;
28760;SDS011;15917;50.014;8.352;2024-03-23T09:55:21;12.10;;;2.45;;
28760;SDS011;15917;50.014;8.352;2024-03-23T09:57:47;8.65;;;1.73;;
28760;SDS011;15917;50.014;8.352;2024-03-23T10:00:12;15.75;;;1.52;;
28760;SDS011;15917;50.014;8.352;2024-03-23T10:02:38;11.13;;;2.20;;
28760;SDS011;15917;50.014;8.352;2024-03-23T10:05:04;7.95;;;1.63;;
28760;SDS011;15917;50.014;8.352;2024-03-23T10:07:44;10.35;;;1.90;;
28760;SDS011;15917;50.014;8.352;2024-03-23T10:10:10;8.68;;;1.73;;
28760;SDS011;15917;50.014;8.352;2024-03-23T10:12:40;6.68;;;1.45;;
28760;SDS011;15917;50.014;8.352;2024-03-23T10:15:21;10.90;;;1.60;;
28760;SDS011;15917;50.014;8.352;2024-03-23T10:17:48;14.95;;;1.80;;
28760;SDS011;15917;50.014;8.352;2024-03-23T10:20:20;8.30;;;1.73;;
28760;SDS011;15917;50.014;8.352;2024-03-23T10:22:48;8.82;;;1.40;;
28760;SDS011;15917;50.014;8.352;2024-03-23T10:25:14;10.23;;;2.13;;
28760;SDS011;15917;50.014;8.352;2024-03-23T10:27:40;7.38;;;1.95;;
28760;SDS011;15917;50.014;8.352;2024-03-23T10:30:13;7.65;;;1.42;;
28760;SDS011;15917;50.014;8.352;2024-03-23T10:32:42;8.07;;;1.10;;
28760;SDS011;15917;50.014;8.352;2024-03-23T10:35:14;15.25;;;1.92;;
28760;SDS011;15917;50.014;8.352;2024-03-23T10:37:44;9.50;;;1.80;;
28760;SDS011;15917;50.014;8.352;2024-03-23T10:40:12;8.43;;;1.33;;
28760;SDS011;15917;50.014;8.352;2024-03-23T10:42:38;7.40;;;1.20;;
28760;SDS011;15917;50.014;8.352;2024-03-23T10:45:05;8.27;;;1.02;;
28760;SDS011;15917;50.014;8.352;2024-03-23T10:47:34;9.32;;;1.33;;
28760;SDS011;15917;50.014;8.352;2024-03-23T10:50:01;6.60;;;1.50;;
28760;SDS011;15917;50.014;8.352;2024-03-23T10:52:28;11.10;;;1.83;;
28760;SDS011;15917;50.014;8.352;2024-03-23T10:54:54;11.80;;;1.70;;
28760;SDS011;15917;50.014;8.352;2024-03-23T10:57:21;13.13;;;1.88;;
28760;SDS011;15917;50.014;8.352;2024-03-23T10:59:52;7.93;;;1.40;;
28760;SDS011;15917;50.014;8.352;2024-03-23T11:02:21;7.03;;;1.65;;
28760;SDS011;15917;50.014;8.352;2024-03-23T11:04:47;13.40;;;1.75;;
28760;SDS011;15917;50.014;8.352;2024-03-23T11:07:29;11.15;;;2.00;;
28760;SDS011;15917;50.014;8.352;2024-03-23T11:09:56;7.72;;;1.85;;
28760;SDS011;15917;50.014;8.352;2024-03-23T11:14:49;5.03;;;1.92;;
28760;SDS011;15917;50.014;8.352;2024-03-23T11:17:26;5.07;;;1.80;;
28760;SDS011;15917;50.014;8.352;2024-03-23T11:19:59;8.80;;;1.95;;
28760;SDS011;15917;50.014;8.352;2024-03-23T11:22:38;8.60;;;1.98;;
28760;SDS011;15917;50.014;8.352;2024-03-23T11:25:18;4.55;;;1.20;;
28760;SDS011;15917;50.014;8.352;2024-03-23T11:27:52;4.05;;;1.77;;
28760;SDS011;15917;50.014;8.352;2024-03-23T11:30:26;11.10;;;1.33;;
28760;SDS011;15917;50.014;8.352;2024-03-23T11:32:57;11.10;;;2.45;;
28760;SDS011;15917;50.014;8.352;2024-03-23T11:40:33;8.55;;;2.13;;
28760;SDS011;15917;50.014;8.352;2024-03-23T11:43:00;11.10;;;2.83;;
28760;SDS011;15917;50.014;8.352;2024-03-23T11:45:27;11.82;;;3.55;;
28760;SDS011;15917;50.014;8.352;2024-03-23T11:48:04;10.95;;;2.72;;
28760;SDS011;15917;50.014;8.352;2024-03-23T11:50:30;7.30;;;2.47;;
28760;SDS011;15917;50.014;8.352;2024-03-23T11:55:53;9.15;;;3.05;;
28760;SDS011;15917;50.014;8.352;2024-03-23T11:58:21;16.65;;;2.53;;
28760;SDS011;15917;50.014;8.352;2024-03-23T12:01:01;15.00;;;2.60;;
28760;SDS011;15917;50.014;8.352;2024-03-23T12:03:28;8.63;;;2.45;;
28760;SDS011;15917;50.014;8.352;2024-03-23T12:05:55;11.75;;;2.42;;
28760;SDS011;15917;50.014;8.352;2024-03-23T12:08:33;9.50;;;3.10;;
28760;SDS011;15917;50.014;8.352;2024-03-23T12:13:32;13.25;;;2.58;;
28760;SDS011;15917;50.014;8.352;2024-03-23T12:18:43;11.65;;;2.72;;
28760;SDS011;15917;50.014;8.352;2024-03-23T12:21:09;10.18;;;2.10;;
28760;SDS011;15917;50.014;8.352;2024-03-23T12:23:35;10.85;;;2.65;;
28760;SDS011;15917;50.014;8.352;2024-03-23T12:26:03;13.10;;;2.60;;
28760;SDS011;15917;50.014;8.352;2024-03-23T12:28:29;8.93;;;2.70;;
28760;SDS011;15917;50.014;8.352;2024-03-23T12:30:54;17.70;;;3.08;;
28760;SDS011;15917;50.014;8.352;2024-03-23T12:33:20;9.48;;;1.65;;
28760;SDS011;15917;50.014;8.352;2024-03-23T12:35:47;11.52;;;2.63;;
28760;SDS011;15917;50.014;8.352;2024-03-23T12:38:13;8.40;;;1.50;;
28760;SDS011;15917;50.014;8.352;2024-03-23T12:40:39;9.93;;;1.65;;
28760;SDS011;15917;50.014;8.352;2024-03-23T12:43:04;10.65;;;1.80;;
28760;SDS011;15917;50.014;8.352;2024-03-23T12:45:30;4.05;;;1.70;;
28760;SDS011;15917;50.014;8.352;2024-03-23T12:47:55;8.20;;;1.60;;
28760;SDS011;15917;50.014;8.352;2024-03-23T12:50:21;12.02;;;2.53;;
28760;SDS011;15917;50.014;8.352;2024-03-23T12:52:47;3.72;;;1.10;;
28760;SDS011;15917;50.014;8.352;2024-03-23T12:55:12;4.05;;;0.82;;
28760;SDS011;15917;50.014;8.352;2024-03-23T12:57:38;9.00;;;0.60;;
28760;SDS011;15917;50.014;8.352;2024-03-23T13:00:06;1.03;;;0.50;;
28760;SDS011;15917;50.014;8.352;2024-03-23T13:02:34;1.42;;;0.47;;
28760;SDS011;15917;50.014;8.352;2024-03-23T13:05:00;3.55;;;0.50;;
28760;SDS011;15917;50.014;8.352;2024-03-23T13:07:25;0.90;;;0.55;;
28760;SDS011;15917;50.014;8.352;2024-03-23T13:09:51;1.92;;;0.52;;
28760;SDS011;15917;50.014;8.352;2024-03-23T13:12:18;5.47;;;1.17;;
28760;SDS011;15917;50.014;8.352;2024-03-23T13:14:47;1.75;;;0.77;;
28760;SDS011;15917;50.014;8.352;2024-03-23T13:17:12;6.45;;;0.80;;
28760;SDS011;15917;50.014;8.352;2024-03-23T13:19:38;2.10;;;0.80;;
28760;SDS011;15917;50.014;8.352;2024-03-23T13:22:04;3.15;;;0.50;;
28760;SDS011;15917;50.014;8.352;2024-03-23T13:24:30;4.32;;;0.63;;
28760;SDS011;15917;50.014;8.352;2024-03-23T13:26:56;7.28;;;0.85;;
28760;SDS011;15917;50.014;8.352;2024-03-23T13:29:22;1.98;;;0.82;;
28760;SDS011;15917;50.014;8.352;2024-03-23T13:31:49;4.03;;;0.52;;
28760;SDS011;15917;50.014;8.352;2024-03-23T13:34:16;1.70;;;0.30;;
28760;SDS011;15917;50.014;8.352;2024-03-23T13:36:42;1.40;;;0.40;;
28760;SDS011;15917;50.014;8.352;2024-03-23T13:39:09;2.03;;;0.47;;
28760;SDS011;15917;50.014;8.352;2024-03-23T13:44:05;2.63;;;0.60;;
28760;SDS011;15917;50.014;8.352;2024-03-23T13:46:31;2.33;;;0.65;;
28760;SDS011;15917;50.014;8.352;2024-03-23T13:48:57;4.20;;;0.52;;
28760;SDS011;15917;50.014;8.352;2024-03-23T13:51:23;3.03;;;0.60;;
28760;SDS011;15917;50.014;8.352;2024-03-23T13:53:55;0.77;;;0.30;;
28760;SDS011;15917;50.014;8.352;2024-03-23T13:56:30;2.50;;;0.52;;
28760;SDS011;15917;50.014;8.352;2024-03-23T13:58:55;13.15;;;1.52;;
28760;SDS011;15917;50.014;8.352;2024-03-23T14:01:21;3.70;;;0.45;;
28760;SDS011;15917;50.014;8.352;2024-03-23T14:03:47;4.18;;;0.65;;
28760;SDS011;15917;50.014;8.352;2024-03-23T14:06:13;2.25;;;0.73;;
28760;SDS011;15917;50.014;8.352;2024-03-23T14:08:39;2.70;;;0.32;;
28760;SDS011;15917;50.014;8.352;2024-03-23T14:11:05;1.80;;;0.43;;
28760;SDS011;15917;50.014;8.352;2024-03-23T14:13:31;1.83;;;0.55;;
28760;SDS011;15917;50.014;8.352;2024-03-23T14:15:57;5.53;;;0.50;;
28760;SDS011;15917;50.014;8.352;2024-03-23T14:18:23;2.33;;;0.57;;
28760;SDS011;15917;50.014;8.352;2024-03-23T14:20:49;1.63;;;0.63;;
28760;SDS011;15917;50.014;8.352;2024-03-23T14:23:15;1.55;;;0.52;;
28760;SDS011;15917;50.014;8.352;2024-03-23T14:25:42;1.45;;;0.47;;
28760;SDS011;15917;50.014;8.352;2024-03-23T14:28:07;3.80;;;0.77;;
28760;SDS011;15917;50.014;8.352;2024-03-23T14:30:39;1.90;;;0.88;;
28760;SDS011;15917;50.014;8.352;2024-03-23T14:33:08;5.20;;;0.98;;
28760;SDS011;15917;50.014;8.352;2024-03-23T14:35:34;3.58;;;0.50;;
28760;SDS011;15917;50.014;8.352;2024-03-23T14:38:00;1.70;;;0.73;;
28760;SDS011;15917;50.014;8.352;2024-03-23T14:40:26;4.80;;;0.55;;
28760;SDS011;15917;50.014;8.352;2024-03-23T14:42:52;3.55;;;0.77;;
28760;SDS011;15917;50.014;8.352;2024-03-23T14:45:21;3.33;;;0.60;;
28760;SDS011;15917;50.014;8.352;2024-03-23T14:47:53;1.55;;;0.68;;
28760;SDS011;15917;50.014;8.352;2024-03-23T14:50:18;4.38;;;0.80;;
28760;SDS011;15917;50.014;8.352;2024-03-23T14:52:44;0.65;;;0.40;;
28760;SDS011;15917;50.014;8.352;2024-03-23T14:55:11;2.58;;;0.85;;
28760;SDS011;15917;50.014;8.352;2024-03-23T14:57:37;1.77;;;0.40;;
28760;SDS011;15917;50.014;8.352;2024-03-23T15:00:05;5.05;;;0.43;;
28760;SDS011;15917;50.014;8.352;2024-03-23T15:02:32;1.85;;;0.57;;
28760;SDS011;15917;50.014;8.352;2024-03-23T15:04:58;4.53;;;0.60;;
28760;SDS011;15917;50.014;8.352;2024-03-23T15:07:24;2.70;;;1.00;;
28760;SDS011;15917;50.014;8.352;2024-03-23T15:09:50;4.38;;;0.60;;
28760;SDS011;15917;50.014;8.352;2024-03-23T15:12:15;5.03;;;1.02;;
28760;SDS011;15917;50.014;8.352;2024-03-23T15:14:41;2.90;;;0.77;;
28760;SDS011;15917;50.014;8.352;2024-03-23T15:17:06;3.15;;;0.90;;
28760;SDS011;15917;50.014;8.352;2024-03-23T15:19:34;8.38;;;0.80;;
28760;SDS011;15917;50.014;8.352;2024-03-23T15:21:59;3.40;;;1.13;;
28760;SDS011;15917;50.014;8.352;2024-03-23T15:24:25;4.95;;;1.20;;
28760;SDS011;15917;50.014;8.352;2024-03-23T15:26:51;8.82;;;1.35;;
28760;SDS011;15917;50.014;8.352;2024-03-23T15:29:17;4.35;;;0.95;;
28760;SDS011;15917;50.014;8.352;2024-03-23T15:31:43;2.15;;;0.68;;
28760;SDS011;15917;50.014;8.352;2024-03-23T15:34:10;6.40;;;0.57;;
28760;SDS011;15917;50.014;8.352;2024-03-23T15:36:39;9.38;;;1.77;;
28760;SDS011;15917;50.014;8.352;2024-03-23T15:39:05;2.38;;;0.60;;
28760;SDS011;15917;50.014;8.352;2024-03-23T15:41:31;3.83;;;0.93;;
28760;SDS011;15917;50.014;8.352;2024-03-23T15:43:59;2.13;;;0.63;;
28760;SDS011;15917;50.014;8.352;2024-03-23T15:46:24;6.55;;;0.88;;
28760;SDS011;15917;50.014;8.352;2024-03-23T15:48:50;2.42;;;0.57;;
28760;SDS011;15917;50.014;8.352;2024-03-23T15:51:16;1.95;;;0.60;;